createdAt,value
2023-01-15T00:00:47.203Z,7.60
2023-01-15T00:03:22.372Z,7.60
2023-01-15T00:05:51.080Z,7.60
2023-01-15T00:08:19.603Z,7.60
2023-01-15T00:10:49.780Z,7.60
2023-01-15T00:13:18.375Z,7.60
2023-01-15T00:15:48.101Z,7.50
2023-01-15T00:18:16.522Z,7.50
2023-01-15T00:20:47.973Z,7.50
2023-01-15T00:23:36.946Z,7.50
2023-01-15T00:26:24.264Z,7.50
2023-01-15T00:28:52.587Z,7.50
2023-01-15T00:31:20.936Z,7.50
2023-01-15T00:36:18.191Z,7.40
2023-01-15T00:38:46.495Z,7.40
2023-01-15T00:41:22.077Z,7.40
2023-01-15T00:43:50.805Z,7.40
2023-01-15T00:46:19.229Z,7.40
2023-01-15T00:48:47.632Z,7.40
2023-01-15T00:54:02.525Z,7.30
2023-01-15T00:56:31.607Z,7.30
2023-01-15T01:01:33.506Z,7.30
2023-01-15T01:04:02.860Z,7.30
2023-01-15T01:06:34.072Z,7.30
2023-01-15T01:09:03.869Z,7.20
2023-01-15T01:11:34.649Z,7.20
2023-01-15T01:14:05.465Z,7.20
2023-01-15T01:16:37.751Z,7.20
2023-01-15T01:19:08.863Z,7.20
2023-01-15T01:21:39.362Z,7.20
2023-01-15T01:24:09.760Z,7.20
2023-01-15T01:26:38.397Z,7.20
2023-01-15T01:29:07.308Z,7.20
2023-01-15T01:31:35.802Z,7.20
2023-01-15T01:34:04.164Z,7.20
2023-01-15T01:36:36.100Z,7.20
2023-01-15T01:39:05.869Z,7.10
2023-01-15T01:41:36.117Z,7.10
2023-01-15T01:44:07.043Z,7.10
2023-01-15T01:46:37.108Z,7.10
2023-01-15T01:49:09.204Z,7.00
2023-01-15T01:51:42.220Z,7.00
2023-01-15T01:54:12.067Z,7.00
2023-01-15T01:56:42.268Z,7.00
2023-01-15T01:59:10.924Z,7.00
2023-01-15T02:01:41.224Z,6.90
2023-01-15T02:04:11.908Z,7.00
2023-01-15T02:06:43.713Z,6.90
2023-01-15T02:09:12.250Z,6.90
2023-01-15T02:11:42.116Z,6.90
2023-01-15T02:14:14.685Z,6.90
2023-01-15T02:16:47.268Z,6.90
2023-01-15T02:19:26.743Z,6.80
2023-01-15T02:22:07.939Z,6.80
2023-01-15T02:24:50.440Z,6.80
2023-01-15T02:27:22.347Z,6.80
2023-01-15T02:29:57.827Z,6.80
2023-01-15T02:32:33.307Z,6.80
2023-01-15T02:35:08.701Z,6.70
2023-01-15T02:37:43.008Z,6.70
2023-01-15T02:40:13.643Z,6.70
2023-01-15T02:42:47.658Z,6.70
2023-01-15T02:45:24.105Z,6.70
2023-01-15T02:47:55.637Z,6.70
2023-01-15T02:50:31.241Z,6.70
2023-01-15T02:53:04.030Z,6.60
2023-01-15T02:55:39.788Z,6.60
2023-01-15T02:58:14.731Z,6.60
2023-01-15T03:00:50.499Z,6.70
2023-01-15T03:03:27.699Z,6.70
2023-01-15T03:06:02.250Z,6.70
2023-01-15T03:08:31.178Z,6.70
2023-01-15T03:11:07.190Z,6.70
2023-01-15T03:13:47.304Z,6.60
2023-01-15T03:16:39.089Z,6.60
2023-01-15T03:19:18.175Z,6.60
2023-01-15T03:21:53.460Z,6.60
2023-01-15T03:24:30.149Z,6.50
2023-01-15T03:26:59.670Z,6.50
2023-01-15T03:29:34.066Z,6.40
2023-01-15T03:32:03.197Z,6.40
2023-01-15T03:34:39.126Z,6.40
2023-01-15T03:37:08.632Z,6.30
2023-01-15T03:39:37.317Z,6.30
2023-01-15T03:42:26.423Z,6.30
2023-01-15T03:45:07.235Z,6.30
2023-01-15T03:47:46.932Z,6.30
2023-01-15T03:50:24.577Z,6.30
2023-01-15T03:52:59.865Z,6.30
2023-01-15T03:55:38.351Z,6.30
2023-01-15T03:58:14.677Z,6.30
2023-01-15T04:00:51.967Z,6.30
2023-01-15T04:03:24.061Z,6.30
2023-01-15T04:05:53.836Z,6.30
2023-01-15T04:08:23.650Z,6.20
2023-01-15T04:10:54.526Z,6.20
2023-01-15T04:13:24.897Z,6.20
2023-01-15T04:15:57.108Z,6.20
2023-01-15T04:18:27.375Z,6.10
2023-01-15T04:20:56.065Z,6.10
2023-01-15T04:23:24.697Z,6.10
2023-01-15T04:25:53.200Z,6.10
2023-01-15T04:28:21.652Z,6.00
2023-01-15T04:30:50.355Z,5.90
2023-01-15T04:33:20.267Z,5.90
2023-01-15T04:35:49.034Z,5.90
2023-01-15T04:38:18.061Z,5.90
2023-01-15T04:41:03.709Z,5.80
2023-01-15T04:43:49.388Z,5.80
2023-01-15T04:46:21.692Z,5.80
2023-01-15T04:48:51.611Z,5.70
2023-01-15T04:51:19.997Z,5.70
2023-01-15T04:53:48.518Z,5.70
2023-01-15T04:56:16.979Z,5.60
2023-01-15T04:58:45.337Z,5.60
2023-01-15T05:01:15.163Z,5.60
2023-01-15T05:03:44.096Z,5.60
2023-01-15T05:06:14.552Z,5.60
2023-01-15T05:08:43.315Z,5.60
2023-01-15T05:11:11.762Z,5.50
2023-01-15T05:13:40.188Z,5.50
2023-01-15T05:16:10.527Z,5.50
2023-01-15T05:18:39.085Z,5.50
2023-01-15T05:21:08.313Z,5.50
2023-01-15T05:23:38.259Z,5.50
2023-01-15T05:26:07.081Z,5.40
2023-01-15T05:28:35.556Z,5.40
2023-01-15T05:31:09.194Z,5.30
2023-01-15T05:33:38.805Z,5.30
2023-01-15T05:36:10.122Z,5.30
2023-01-15T05:38:41.010Z,5.30
2023-01-15T05:41:26.103Z,5.30
2023-01-15T05:43:54.812Z,5.30
2023-01-15T05:46:23.301Z,5.30
2023-01-15T05:48:51.712Z,5.30
2023-01-15T05:51:20.142Z,5.20
2023-01-15T05:53:49.938Z,5.20
2023-01-15T05:56:18.368Z,5.20
2023-01-15T05:58:46.964Z,5.20
2023-01-15T06:01:15.684Z,5.20
2023-01-15T06:03:44.393Z,5.20
2023-01-15T06:06:15.730Z,5.20
2023-01-15T06:08:44.369Z,5.20
2023-01-15T06:11:14.135Z,5.20
2023-01-15T06:13:42.536Z,5.20
2023-01-15T06:16:11.899Z,5.20
2023-01-15T06:18:40.830Z,5.10
2023-01-15T06:21:11.529Z,5.10
2023-01-15T06:23:41.383Z,5.10
2023-01-15T06:26:15.286Z,5.10
2023-01-15T06:28:44.440Z,5.10
2023-01-15T06:31:14.703Z,5.10
2023-01-15T06:33:43.687Z,5.10
2023-01-15T06:36:14.741Z,5.10
2023-01-15T06:38:44.075Z,5.10
2023-01-15T06:41:30.684Z,5.10
2023-01-15T06:44:16.765Z,5.10
2023-01-15T22:32:11.269Z,7.60
2023-01-15T22:34:39.776Z,7.70
2023-01-15T22:37:10.992Z,7.70
2023-01-15T22:39:42.037Z,7.70
2023-01-15T22:42:28.437Z,7.70
2023-01-15T22:45:00.167Z,7.70
2023-01-15T22:47:30.663Z,7.70
2023-01-15T22:49:59.108Z,7.70
2023-01-15T22:52:27.460Z,7.70
2023-01-15T22:54:56.151Z,7.70
2023-01-15T22:57:24.664Z,7.80
2023-01-15T22:59:52.953Z,7.80
2023-01-15T23:04:49.736Z,7.80
2023-01-15T23:07:18.270Z,7.80
2023-01-15T23:09:57.111Z,7.80
2023-01-15T23:12:25.515Z,7.80
2023-01-15T23:14:53.878Z,7.80
2023-01-15T23:17:22.350Z,7.80
2023-01-15T23:19:56.057Z,7.80
2023-01-15T23:22:24.521Z,7.90
2023-01-15T23:24:53.253Z,7.90
2023-01-15T23:27:21.780Z,7.90
2023-01-15T23:29:50.123Z,8.00
2023-01-15T23:32:18.468Z,8.00
2023-01-15T23:34:46.998Z,8.00
2023-01-15T23:37:17.317Z,7.90
2023-01-15T23:39:45.719Z,7.70
2023-01-15T23:42:33.456Z,7.50
2023-01-15T23:45:19.645Z,7.30
2023-01-15T23:47:48.247Z,7.30
2023-01-15T23:50:17.154Z,7.20
2023-01-15T23:52:47.503Z,7.20
2023-01-15T23:55:16.153Z,7.20
2023-01-15T23:57:44.993Z,7.20
